Time;durP1;ratioP1;P1;durP2;ratioP2;P2;SDS_P1;SDS_P2;PMS_P1;PMS_P2;Temp;Humidity;BMP_temperature;BMP_pressure;BME280_temperature;BME280_humidity;BME280_pressure;Samples;Min_cycle;Max_cycle;Signal;HPM_P1;HPM_P2
2022/06/15 00:00:44;;;;;;;8.15;1.50;;;;;;;17.13;37.85;94213.31;5011508;28;20079;-75
2022/06/15 00:03:11;;;;;;;3.40;1.20;;;;;;;16.96;38.12;94182.19;5010808;28;20041;-76
2022/06/15 00:05:37;;;;;;;2.00;1.80;;;;;;;17.10;38.56;94224.78;5009668;28;20030;-75
2022/06/15 00:08:03;;;;;;;3.75;1.70;;;;;;;17.25;38.50;94242.88;5010234;28;20306;-75
2022/06/15 00:10:29;;;;;;;1.45;1.20;;;;;;;17.23;38.33;94239.72;5010324;28;20483;-75
2022/06/15 00:12:54;;;;;;;2.10;1.30;;;;;;;17.17;38.35;94224.97;5010289;28;20045;-75
2022/06/15 00:15:19;;;;;;;2.00;1.20;;;;;;;17.03;37.40;94182.34;5008875;28;20105;-75
2022/06/15 00:17:45;;;;;;;2.00;1.30;;;;;;;17.43;37.38;94232.56;5010006;28;20535;-75
2022/06/15 00:20:11;;;;;;;2.55;1.30;;;;;;;17.23;37.89;94206.69;5010569;28;20036;-75
2022/06/15 00:22:38;;;;;;;6.05;1.58;;;;;;;17.30;37.13;94202.28;5009696;28;20632;-75
2022/06/15 00:25:04;;;;;;;2.53;1.48;;;;;;;17.33;37.25;94211.56;5009028;28;20180;-75
2022/06/15 00:27:29;;;;;;;3.53;1.70;;;;;;;17.11;37.43;94194.09;5007868;28;20198;-75
2022/06/15 00:29:55;;;;;;;1.60;1.27;;;;;;;17.03;37.95;94176.97;5008945;28;20049;-74
2022/06/15 00:32:20;;;;;;;3.80;1.73;;;;;;;17.02;38.46;94213.03;5009957;28;20079;-75
2022/06/15 00:34:45;;;;;;;1.77;1.42;;;;;;;17.18;37.59;94227.31;5008991;28;20037;-76
2022/06/15 00:37:11;;;;;;;4.07;1.65;;;;;;;17.15;37.58;94211.13;5008814;28;20026;-75
2022/06/15 00:39:38;;;;;;;1.40;1.10;;;;;;;17.05;37.70;94182.81;5008249;28;20339;-75
2022/06/15 00:42:04;;;;;;;2.47;1.30;;;;;;;17.24;37.06;94206.34;5007914;28;20037;-75
2022/06/15 00:44:36;;;;;;;1.40;1.13;;;;;;;17.29;37.25;94203.41;5007402;28;20515;-76
2022/06/15 00:47:11;;;;;;;3.33;1.13;;;;;;;17.48;36.67;94218.84;5008941;28;20042;-75
2022/06/15 00:49:40;;;;;;;2.78;1.48;;;;;;;17.46;37.05;94226.47;5007364;28;20041;-75
2022/06/15 00:52:16;;;;;;;5.63;1.30;;;;;;;17.46;37.12;94223.78;5008947;28;20529;-75
2022/06/15 00:54:44;;;;;;;3.17;1.65;;;;;;;17.41;36.90;94232.09;5008045;28;20034;-75
2022/06/15 00:57:10;;;;;;;4.55;1.40;;;;;;;17.32;36.56;94234.19;5009699;28;20042;-75
2022/06/15 00:59:50;;;;;;;2.05;1.35;;;;;;;17.32;36.64;94215.38;5008036;28;20037;-75
2022/06/15 01:02:16;;;;;;;2.72;1.35;;;;;;;17.38;36.31;94230.13;5015810;28;20407;-75
2022/06/15 01:04:54;;;;;;;1.88;1.33;;;;;;;17.44;36.14;94234.13;5009155;28;20030;-76
2022/06/15 01:07:32;;;;;;;3.22;1.40;;;;;;;17.25;36.97;94225.94;5008095;28;20025;-75
2022/06/15 01:10:28;;;;;;;1.10;1.00;;;;;;;17.23;36.53;94222.81;5007939;28;20116;-75
2022/06/15 01:13:12;;;;;;;2.20;1.40;;;;;;;17.29;36.62;94237.56;5009086;28;20430;-75
2022/06/15 01:15:44;;;;;;;5.70;1.40;;;;;;;17.38;36.12;94238.19;5009916;28;20461;-75
2022/06/15 01:18:38;;;;;;;5.15;1.88;;;;;;;17.16;36.59;94207.28;5008425;28;20087;-76
2022/06/15 01:21:27;;;;;;;3.03;1.20;;;;;;;17.27;36.05;94212.94;5009418;28;20076;-75
2022/06/15 01:24:20;;;;;;;1.80;1.23;;;;;;;17.38;36.01;94240.88;5008784;28;20440;-75
2022/06/15 01:26:54;;;;;;;6.18;1.50;;;;;;;17.43;36.14;94248.69;5016292;28;20120;-75
2022/06/15 01:29:29;;;;;;;2.67;1.30;;;;;;;17.40;36.07;94239.41;5007601;28;20033;-75
2022/06/15 01:32:06;;;;;;;2.45;1.45;;;;;;;17.39;36.02;94240.53;5008087;28;20050;-75
2022/06/15 01:34:45;;;;;;;4.82;1.30;;;;;;;16.77;35.96;94176.66;5008765;28;20060;-75
2022/06/15 01:37:30;;;;;;;2.72;1.50;;;;;;;17.01;36.62;94224.91;5008906;28;20111;-75
2022/06/15 01:40:18;;;;;;;1.50;1.30;;;;;;;17.07;36.46;94245.03;5008106;28;20029;-75
2022/06/15 01:42:51;;;;;;;2.05;1.40;;;;;;;16.97;36.97;94242.84;5015491;28;20443;-75
2022/06/15 01:45:20;;;;;;;2.47;1.20;;;;;;;16.92;37.14;94239.59;5007102;28;20083;-75
2022/06/15 01:47:50;;;;;;;3.20;1.40;;;;;;;16.72;36.91;94222.59;5007709;28;20053;-75
2022/06/15 01:50:21;;;;;;;2.42;1.40;;;;;;;16.84;36.54;94235.97;5004685;28;20571;-76
2022/06/15 01:52:52;;;;;;;2.47;1.33;;;;;;;16.83;37.25;94253.19;5008440;28;20096;-76
2022/06/15 01:55:33;;;;;;;2.65;1.50;;;;;;;16.67;37.43;94217.47;5011383;28;20464;-75
2022/06/15 01:58:04;;;;;;;3.75;1.60;;;;;;;16.72;37.13;94246.75;5009485;28;20430;-75
2022/06/15 02:00:31;;;;;;;3.22;1.40;;;;;;;16.48;37.47;94211.91;5010517;28;20710;-75
2022/06/15 02:03:11;;;;;;;1.90;1.30;;;;;;;16.65;37.47;94227.75;5009617;28;20072;-76
2022/06/15 02:05:58;;;;;;;2.25;1.52;;;;;;;16.66;37.75;94242.75;5014040;28;20432;-75
2022/06/15 02:08:53;;;;;;;3.10;1.40;;;;;;;16.75;37.42;94251.44;5009355;28;20486;-75
2022/06/15 02:11:31;;;;;;;4.50;1.40;;;;;;;16.77;36.97;94244.59;5008161;28;20037;-76
2022/06/15 02:14:05;;;;;;;2.08;1.50;;;;;;;16.81;37.54;94250.09;5005966;28;20530;-75
2022/06/15 02:16:34;;;;;;;2.83;1.13;;;;;;;16.67;36.96;94204.03;5010549;28;20492;-75
2022/06/15 02:19:03;;;;;;;5.45;2.20;;;;;;;17.00;36.77;94234.09;5009497;28;20431;-75
2022/06/15 02:21:29;;;;;;;1.95;1.23;;;;;;;17.13;36.85;94251.75;5007867;28;20048;-75
2022/06/15 02:23:58;;;;;;;1.73;1.20;;;;;;;17.17;36.96;94247.25;5009304;28;20045;-75
2022/06/15 02:26:31;;;;;;;2.17;1.55;;;;;;;17.23;36.49;94238.94;5009805;28;20045;-75
2022/06/15 02:29:00;;;;;;;2.30;1.40;;;;;;;17.15;36.69;94243.38;5010629;28;20096;-76
2022/06/15 02:31:27;;;;;;;1.98;1.20;;;;;;;17.09;36.64;94240.09;5008213;28;20114;-75
2022/06/15 02:33:54;;;;;;;1.70;1.30;;;;;;;17.26;36.30;94246.34;5010854;28;20462;-75
2022/06/15 02:36:21;;;;;;;4.65;1.33;;;;;;;16.97;36.63;94215.97;5008089;28;20037;-75
2022/06/15 02:38:49;;;;;;;2.85;1.40;;;;;;;17.14;36.74;94242.56;5008951;28;20041;-75
2022/06/15 02:41:19;;;;;;;2.88;1.20;;;;;;;17.34;36.60;94234.63;5008649;28;20030;-76
2022/06/15 02:43:47;;;;;;;3.25;1.40;;;;;;;17.36;36.48;94232.38;5009718;28;20031;-75
2022/06/15 02:46:15;;;;;;;3.03;1.23;;;;;;;17.40;36.39;94244.78;5010214;28;20021;-75
2022/06/15 02:48:41;;;;;;;1.85;1.27;;;;;;;17.42;36.24;94225.59;5005871;28;20730;-75
2022/06/15 02:51:17;;;;;;;2.08;1.55;;;;;;;17.38;36.51;94246.25;5008914;28;20052;-76
2022/06/15 02:53:43;;;;;;;5.82;1.70;;;;;;;17.46;35.72;94221.09;5006156;28;20033;-75
2022/06/15 02:56:12;;;;;;;1.60;1.23;;;;;;;17.28;36.34;94217.97;5009430;28;20034;-75
2022/06/15 02:58:41;;;;;;;1.50;1.40;;;;;;;17.26;36.81;94212.16;5008894;28;20033;-76
2022/06/15 03:01:07;;;;;;;2.28;1.45;;;;;;;17.37;37.13;94228.56;5009472;28;20510;-75
2022/06/15 03:03:34;;;;;;;1.10;1.00;;;;;;;17.56;36.53;94236.72;4991957;28;20089;-76
2022/06/15 03:05:59;;;;;;;2.35;1.40;;;;;;;17.65;36.01;94239.25;5006028;28;20092;-76
2022/06/15 03:08:25;;;;;;;4.15;1.30;;;;;;;17.71;36.06;94238.63;5007886;28;20566;-75
2022/06/15 03:10:52;;;;;;;2.67;1.50;;;;;;;17.67;36.31;94243.16;5003841;28;20048;-75
2022/06/15 03:13:18;;;;;;;1.92;1.17;;;;;;;17.70;36.11;94236.31;4995762;28;20499;-75
2022/06/15 03:15:43;;;;;;;3.72;1.10;;;;;;;17.44;36.25;94223.38;4991411;28;20724;-75
2022/06/15 03:18:09;;;;;;;2.47;1.45;;;;;;;17.35;36.51;94236.97;4988994;28;20086;-75
2022/06/15 03:20:35;;;;;;;2.13;1.40;;;;;;;17.26;37.32;94238.28;4990443;28;20519;-75
2022/06/15 03:23:01;;;;;;;2.50;1.38;;;;;;;17.16;36.68;94218.03;4987834;28;20588;-75
2022/06/15 03:25:27;;;;;;;2.45;1.50;;;;;;;17.13;37.06;94235.63;4990133;28;20411;-75
2022/06/15 03:27:53;;;;;;;3.83;1.77;;;;;;;16.99;37.25;94235.22;4987922;28;20653;-75
2022/06/15 03:30:19;;;;;;;2.15;1.70;;;;;;;16.96;37.77;94235.13;4988482;28;20319;-76
2022/06/15 03:32:44;;;;;;;5.35;1.38;;;;;;;17.02;37.89;94237.22;4988452;28;20191;-75
2022/06/15 03:35:11;;;;;;;2.55;1.60;;;;;;;17.05;37.48;94241.91;4989232;28;20034;-76
2022/06/15 03:37:37;;;;;;;5.07;1.75;;;;;;;17.00;37.70;94225.25;4988282;28;20380;-75
2022/06/15 03:40:05;;;;;;;2.15;1.50;;;;;;;16.96;37.94;94221.69;4988829;28;20667;-75
2022/06/15 03:42:31;;;;;;;3.15;1.52;;;;;;;16.98;37.92;94233.66;4986493;28;20062;-75
2022/06/15 03:44:56;;;;;;;2.15;1.40;;;;;;;16.70;38.22;94216.75;5003854;28;20128;-75
2022/06/15 03:47:22;;;;;;;3.20;1.65;;;;;;;16.91;38.33;94238.84;4988863;28;20064;-75
2022/06/15 03:49:52;;;;;;;4.03;1.55;;;;;;;17.03;37.92;94246.06;4988094;28;20579;-75
2022/06/15 03:52:20;;;;;;;2.45;1.33;;;;;;;17.03;38.24;94248.75;4987995;28;20018;-76
2022/06/15 03:54:45;;;;;;;2.90;1.65;;;;;;;17.06;38.14;94245.41;4988171;28;20025;-75
2022/06/15 03:57:13;;;;;;;3.47;1.85;;;;;;;16.96;38.64;94241.28;4988387;28;20035;-75
2022/06/15 03:59:39;;;;;;;2.55;1.65;;;;;;;17.16;38.47;94248.38;4988948;28;20146;-74
2022/06/15 04:02:04;;;;;;;1.38;1.27;;;;;;;17.23;37.70;94250.47;4991037;28;20043;-75
2022/06/15 04:04:30;;;;;;;2.13;1.40;;;;;;;16.97;38.19;94215.97;4991882;28;20100;-75
2022/06/15 04:06:56;;;;;;;2.35;1.40;;;;;;;17.25;38.21;94252.84;4992637;28;20074;-75
2022/06/15 04:09:22;;;;;;;1.65;1.33;;;;;;;17.39;37.86;94253.19;4991683;28;20026;-76
2022/06/15 04:11:58;;;;;;;6.10;1.60;;;;;;;17.23;38.12;94255.06;4989466;28;20042;-75
2022/06/15 04:14:33;;;;;;;2.65;1.58;;;;;;;17.23;38.33;94260.44;4992160;28;20117;-75
2022/06/15 04:16:59;;;;;;;5.35;1.65;;;;;;;17.10;38.45;94251.66;4990639;28;20046;-76
2022/06/15 04:19:28;;;;;;;4.20;1.90;;;;;;;16.87;39.21;94237.94;4991407;28;20396;-75
2022/06/15 04:21:54;;;;;;;3.92;1.63;;;;;;;16.61;39.19;94224.19;4992837;28;20050;-75
2022/06/15 04:24:21;;;;;;;1.88;1.60;;;;;;;16.94;39.25;94237.38;4991198;28;20046;-75
2022/06/15 04:26:48;;;;;;;4.90;1.73;;;;;;;16.95;39.26;94223.59;4990491;28;20045;-75
2022/06/15 04:29:15;;;;;;;3.10;2.00;;;;;;;17.20;38.15;94253.09;4990869;28;20487;-75
2022/06/15 04:31:41;;;;;;;1.63;1.48;;;;;;;16.91;38.52;94195.88;4992710;28;20413;-75
2022/06/15 04:34:07;;;;;;;3.00;1.70;;;;;;;17.35;38.28;94252.34;4991133;28;20112;-76
2022/06/15 04:36:33;;;;;;;3.80;1.52;;;;;;;17.07;38.26;94239.66;5010623;28;20088;-76
2022/06/15 04:38:59;;;;;;;2.15;1.40;;;;;;;17.22;38.42;94256.19;5010193;28;20408;-75
2022/06/15 04:41:25;;;;;;;3.72;1.95;;;;;;;17.17;39.45;94258.00;5009711;28;20054;-76
2022/06/15 04:43:51;;;;;;;2.42;1.92;;;;;;;17.12;38.25;94238.63;5011686;28;20045;-75
2022/06/15 04:46:17;;;;;;;2.08;1.38;;;;;;;16.91;38.65;94201.25;5008359;28;20021;-75
2022/06/15 04:48:42;;;;;;;2.85;1.35;;;;;;;17.20;39.40;94247.69;5011997;28;20025;-76
2022/06/15 04:51:13;;;;;;;3.75;1.50;;;;;;;17.25;38.45;94260.91;5010602;28;20127;-75
2022/06/15 04:53:39;;;;;;;3.08;1.40;;;;;;;17.20;39.42;94231.56;5012049;28;20030;-75
2022/06/15 04:56:05;;;;;;;2.67;1.67;;;;;;;17.35;38.79;94249.66;5010009;28;20073;-75
2022/06/15 04:58:30;;;;;;;2.05;1.58;;;;;;;17.36;37.85;94240.44;5011438;28;20044;-75
2022/06/15 05:00:55;;;;;;;1.40;1.30;;;;;;;17.59;37.82;94265.63;5010838;28;20107;-75
2022/06/15 05:03:21;;;;;;;1.88;1.38;;;;;;;17.61;38.02;94264.13;5011044;28;20442;-75
2022/06/15 05:05:46;;;;;;;3.38;1.80;;;;;;;17.72;38.24;94272.47;5010377;28;20058;-76
2022/06/15 05:08:12;;;;;;;3.55;1.98;;;;;;;17.72;37.25;94269.78;5010044;28;20373;-75
2022/06/15 05:10:37;;;;;;;1.63;1.40;;;;;;;17.63;37.69;94263.81;5008633;28;20400;-75
2022/06/15 05:13:02;;;;;;;1.90;1.48;;;;;;;17.36;38.36;94232.38;5013488;28;20112;-75
2022/06/15 05:15:28;;;;;;;3.40;1.55;;;;;;;17.66;38.38;94257.72;5009549;28;20056;-75
2022/06/15 05:17:54;;;;;;;2.13;1.45;;;;;;;17.82;38.18;94276.56;5008319;28;20050;-75
2022/06/15 05:20:19;;;;;;;3.60;1.63;;;;;;;17.77;38.00;94258.78;5010938;28;20030;-75
2022/06/15 05:22:54;;;;;;;2.08;1.45;;;;;;;18.00;39.59;94270.50;5008009;28;20046;-75
2022/06/15 05:25:20;;;;;;;2.42;1.88;;;;;;;18.09;37.27;94286.47;5010590;28;20030;-75
2022/06/15 05:27:45;;;;;;;2.47;1.60;;;;;;;18.23;37.53;94291.44;5010098;28;20014;-75
2022/06/15 05:30:11;;;;;;;3.53;1.30;;;;;;;18.34;37.70;94287.84;5009228;28;20029;-75
2022/06/15 05:32:37;;;;;;;4.40;1.73;;;;;;;18.31;37.39;94303.91;5010669;28;20081;-75
2022/06/15 05:35:03;;;;;;;2.15;1.52;;;;;;;18.29;36.92;94282.72;5009066;28;20227;-75
2022/06/15 05:37:33;;;;;;;2.08;1.30;;;;;;;17.98;37.62;94263.94;5007855;28;20042;-75
2022/06/15 05:39:59;;;;;;;3.60;1.75;;;;;;;18.13;37.79;94281.19;5011178;28;20438;-75
2022/06/15 05:42:28;;;;;;;1.52;1.27;;;;;;;18.21;37.62;94305.22;5008715;28;20099;-75
2022/06/15 05:44:54;;;;;;;2.88;1.42;;;;;;;18.18;37.51;94297.06;5009892;28;20049;-76
2022/06/15 05:47:19;;;;;;;3.30;1.73;;;;;;;18.13;37.88;94281.19;5008929;28;20388;-75
2022/06/15 05:49:45;;;;;;;1.70;1.25;;;;;;;17.98;37.53;94280.84;5010458;28;20053;-76
2022/06/15 05:52:11;;;;;;;2.63;1.48;;;;;;;18.04;38.05;94286.72;5009257;28;20495;-75
2022/06/15 05:54:36;;;;;;;5.43;1.70;;;;;;;18.15;37.84;94295.06;5009618;28;20021;-76
2022/06/15 05:57:08;;;;;;;2.95;2.00;;;;;;;18.20;37.87;94294.78;5007924;28;20040;-75
2022/06/15 05:59:33;;;;;;;4.85;1.70;;;;;;;18.35;38.06;94296.69;5023878;28;20038;-75
2022/06/15 06:01:59;;;;;;;3.47;1.20;;;;;;;18.25;38.31;94294.53;5007245;28;20094;-75
2022/06/15 06:04:24;;;;;;;1.95;1.45;;;;;;;18.31;36.94;94299.31;5006743;28;20037;-75
2022/06/15 06:06:50;;;;;;;3.75;1.63;;;;;;;18.44;37.95;94302.66;5006878;28;20037;-75
2022/06/15 06:09:15;;;;;;;2.10;1.67;;;;;;;18.41;37.24;94298.00;5005151;28;20026;-75
2022/06/15 06:11:41;;;;;;;1.58;1.30;;;;;;;18.60;37.59;94311.50;4999421;28;20037;-75
2022/06/15 06:14:08;;;;;;;2.10;1.52;;;;;;;18.61;36.98;94310.38;5005387;28;20674;-76
2022/06/15 06:16:34;;;;;;;3.03;1.30;;;;;;;18.59;37.61;94309.94;5004201;28;20579;-75
2022/06/15 06:18:59;;;;;;;2.13;1.60;;;;;;;18.69;37.10;94308.59;5010344;28;20124;-76
2022/06/15 06:21:25;;;;;;;2.17;1.50;;;;;;;18.67;37.42;94310.88;5004643;28;20132;-75
2022/06/15 06:23:50;;;;;;;2.25;1.58;;;;;;;18.65;37.23;94323.91;5010468;28;20045;-75
2022/06/15 06:26:23;;;;;;;1.65;1.10;;;;;;;18.46;37.45;94301.19;5004728;28;20037;-75
2022/06/15 06:28:49;;;;;;;1.83;1.42;;;;;;;18.69;37.31;94320.16;5005029;28;20059;-76
2022/06/15 06:31:16;;;;;;;1.55;1.30;;;;;;;18.60;37.49;94298.03;5008066;28;20040;-75
2022/06/15 06:33:41;;;;;;;1.65;1.38;;;;;;;18.60;37.53;94310.72;5000999;28;20026;-75
2022/06/15 06:36:16;;;;;;;3.95;1.60;;;;;;;18.61;38.20;94318.47;5001669;28;20410;-75
2022/06/15 06:38:42;;;;;;;3.15;1.60;;;;;;;18.39;39.01;94301.03;5003137;28;20030;-75
2022/06/15 06:41:09;;;;;;;2.05;1.63;;;;;;;18.55;38.98;94292.91;5002729;28;20049;-75
2022/06/15 06:43:34;;;;;;;1.73;1.30;;;;;;;18.65;38.34;94305.84;5004733;28;20610;-75
2022/06/15 06:46:00;;;;;;;3.58;1.85;;;;;;;18.68;37.58;94313.22;5004486;28;20065;-75
2022/06/15 06:48:25;;;;;;;1.50;1.40;;;;;;;18.74;38.74;94314.53;5003041;28;20057;-76
2022/06/15 06:50:52;;;;;;;1.63;1.35;;;;;;;18.66;38.73;94310.09;5002829;28;20052;-76
2022/06/15 06:53:18;;;;;;;2.70;1.95;;;;;;;18.82;38.95;94315.47;5001677;28;20033;-75
2022/06/15 06:55:44;;;;;;;2.10;1.60;;;;;;;18.87;38.75;94309.81;5002737;28;20288;-75
2022/06/15 06:58:09;;;;;;;2.42;1.67;;;;;;;18.85;38.97;94298.59;4997865;28;20380;-76
2022/06/15 07:00:36;;;;;;;2.80;1.85;;;;;;;19.02;37.83;94316.28;5004524;28;20029;-75
2022/06/15 07:03:04;;;;;;;4.65;1.92;;;;;;;18.99;38.53;94323.16;5004110;28;20216;-76
2022/06/15 07:05:31;;;;;;;1.83;1.48;;;;;;;18.91;38.67;94294.50;5004772;28;20409;-75
2022/06/15 07:07:57;;;;;;;2.90;1.58;;;;;;;18.91;38.31;94299.09;5003415;28;20043;-74
2022/06/15 07:10:25;;;;;;;2.85;1.55;;;;;;;18.77;38.55;94292.25;5004453;28;20838;-76
2022/06/15 07:12:51;;;;;;;2.05;1.60;;;;;;;19.15;38.25;94318.47;5005521;28;20080;-75
2022/06/15 07:15:16;;;;;;;4.68;1.45;;;;;;;19.05;38.78;94312.88;5005282;28;20690;-75
2022/06/15 07:17:42;;;;;;;2.90;1.67;;;;;;;18.86;38.65;94287.47;5000988;28;20567;-76
2022/06/15 07:20:09;;;;;;;2.17;1.30;;;;;;;18.93;39.52;94294.13;5003459;28;20072;-75
2022/06/15 07:22:35;;;;;;;7.00;2.10;;;;;;;19.03;39.27;94290.88;5005830;28;20072;-76
2022/06/15 07:25:01;;;;;;;2.10;1.52;;;;;;;19.16;39.28;94300.41;5007669;28;20034;-75
2022/06/15 07:27:26;;;;;;;4.03;2.13;;;;;;;19.27;38.57;94295.97;5007392;28;20064;-75
2022/06/15 07:29:53;;;;;;;3.40;1.95;;;;;;;19.36;39.03;94320.03;5006881;28;20033;-75
2022/06/15 07:32:19;;;;;;;2.45;1.90;;;;;;;19.21;39.61;94324.38;5008450;28;20177;-75
2022/06/15 07:34:45;;;;;;;4.13;2.05;;;;;;;19.26;37.81;94318.69;5007163;28;20519;-76
2022/06/15 07:37:11;;;;;;;2.63;1.48;;;;;;;19.26;38.97;94299.81;5006750;28;20180;-75
2022/06/15 07:39:37;;;;;;;2.33;1.35;;;;;;;19.27;38.39;94301.38;5010457;28;20096;-76
2022/06/15 07:42:07;;;;;;;2.13;1.80;;;;;;;19.38;39.03;94288.88;5010271;28;20077;-75
2022/06/15 07:44:36;;;;;;;3.92;1.42;;;;;;;19.22;37.42;94320.53;5007222;28;20065;-75
2022/06/15 07:49:54;;;;;;;5.13;1.52;;;;;;;19.22;38.17;94320.53;4992224;28;20044;-75
2022/06/15 07:52:20;;;;;;;4.85;1.75;;;;;;;18.92;38.82;94308.75;4990717;28;20030;-75
2022/06/15 07:54:46;;;;;;;6.57;1.65;;;;;;;19.15;39.22;94320.41;4996240;28;20656;-76
2022/06/15 07:57:12;;;;;;;2.70;1.55;;;;;;;19.28;38.34;94316.41;4987152;28;20045;-75
2022/06/15 07:59:37;;;;;;;2.03;1.42;;;;;;;19.17;37.86;94291.94;4987102;28;20029;-75
2022/06/15 08:02:03;;;;;;;1.38;1.20;;;;;;;19.19;37.86;94302.38;4989507;28;20082;-75
2022/06/15 08:04:28;;;;;;;3.00;1.73;;;;;;;19.01;38.54;94295.84;4987877;28;20338;-77
2022/06/15 08:06:54;;;;;;;4.30;1.40;;;;;;;19.23;38.97;94303.22;4986638;28;20038;-76
2022/06/15 08:09:20;;;;;;;1.88;1.40;;;;;;;19.47;38.26;94321.81;4989741;28;20070;-75
2022/06/15 08:14:33;;;;;;;5.55;1.50;;;;;;;19.60;38.72;94325.91;4988666;28;20093;-76
2022/06/15 08:17:00;;;;;;;1.70;1.42;;;;;;;19.64;39.05;94321.38;4987750;28;20477;-75
2022/06/15 08:19:28;;;;;;;1.90;1.33;;;;;;;19.59;39.45;94324.38;4988333;28;20050;-76
2022/06/15 08:21:54;;;;;;;3.42;1.92;;;;;;;19.60;38.87;94320.50;5004467;28;20058;-75
2022/06/15 08:24:21;;;;;;;5.32;1.30;;;;;;;19.60;39.24;94319.75;4989106;28;20564;-76
2022/06/15 08:26:47;;;;;;;1.83;1.33;;;;;;;19.79;39.32;94313.53;4989212;28;20184;-76
2022/06/15 08:29:14;;;;;;;2.90;1.65;;;;;;;19.74;38.47;94320.81;4988953;28;20034;-75
2022/06/15 08:31:40;;;;;;;2.55;1.50;;;;;;;19.61;38.22;94327.47;4990768;28;20045;-76
2022/06/15 08:34:06;;;;;;;2.35;1.50;;;;;;;19.53;37.84;94315.00;4989897;28;20487;-76
2022/06/15 08:36:32;;;;;;;7.28;4.07;;;;;;;19.53;37.99;94315.00;4988753;28;20038;-75
2022/06/15 08:38:58;;;;;;;4.40;2.85;;;;;;;19.27;37.89;94274.41;4990105;28;20789;-76
2022/06/15 08:41:36;;;;;;;5.50;2.67;;;;;;;19.68;37.57;94327.63;4990980;28;20038;-74
2022/06/15 08:44:24;;;;;;;3.05;1.70;;;;;;;19.63;38.36;94319.81;4988228;28;20061;-75
2022/06/15 08:47:08;;;;;;;2.22;1.80;;;;;;;19.78;37.59;94330.88;5003865;28;20030;-75
2022/06/15 08:50:02;;;;;;;3.63;1.50;;;;;;;19.82;36.75;94337.09;4989773;28;20121;-75
2022/06/15 08:52:39;;;;;;;1.60;1.30;;;;;;;19.47;37.08;94311.03;4987594;28;20644;-76
2022/06/15 08:55:07;;;;;;;3.10;1.48;;;;;;;19.75;37.30;94333.13;4987331;28;20030;-76
2022/06/15 08:57:42;;;;;;;2.70;1.77;;;;;;;19.87;37.13;94328.72;4995813;28;20046;-75
2022/06/15 09:00:21;;;;;;;2.42;1.63;;;;;;;19.82;36.32;94327.09;4989407;28;20049;-75
2022/06/15 09:03:12;;;;;;;1.67;1.40;;;;;;;20.03;36.61;94332.09;4986405;28;20041;-75
2022/06/15 09:05:46;;;;;;;2.00;1.20;;;;;;;19.72;36.75;94311.50;4988432;28;20531;-75
2022/06/15 09:08:27;;;;;;;2.90;1.38;;;;;;;19.96;35.83;94329.25;4989531;28;20558;-76
2022/06/15 09:11:46;;;;;;;2.55;1.33;;;;;;;19.94;36.04;94335.03;4992403;28;20065;-76
2022/06/15 09:14:19;;;;;;;1.40;1.30;;;;;;;19.88;35.05;94309.47;4987196;28;20473;-75
2022/06/15 09:17:11;;;;;;;1.20;1.10;;;;;;;19.86;35.27;94332.53;4996192;28;20771;-77
2022/06/15 09:19:45;;;;;;;3.13;1.45;;;;;;;19.90;35.08;94322.59;5003693;28;20045;-76
2022/06/15 09:22:16;;;;;;;3.23;1.37;;;;;;;19.92;34.97;94328.41;5005392;28;20045;-76
2022/06/15 09:25:02;;;;;;;1.42;1.20;;;;;;;19.98;33.79;94335.09;5005173;28;20024;-75
2022/06/15 09:27:38;;;;;;;2.45;1.17;;;;;;;19.84;34.12;94307.84;5005456;28;20034;-75
2022/06/15 09:30:12;;;;;;;1.88;1.30;;;;;;;20.12;34.84;94328.00;5006077;28;20037;-76
2022/06/15 09:32:42;;;;;;;2.97;1.27;;;;;;;20.07;35.77;94319.41;5003064;28;20116;-76
2022/06/15 09:35:16;;;;;;;1.45;1.30;;;;;;;20.15;34.91;94329.97;5006875;28;20030;-75
2022/06/15 09:37:46;;;;;;;3.50;1.40;;;;;;;19.85;35.04;94320.22;5005652;28;20048;-75
2022/06/15 09:40:14;;;;;;;2.22;1.30;;;;;;;19.91;34.97;94329.53;5006622;28;20121;-76
2022/06/15 09:42:52;;;;;;;4.30;1.77;;;;;;;19.93;36.63;94316.47;5007630;28;20172;-76
2022/06/15 09:45:27;;;;;;;3.67;1.50;;;;;;;20.04;36.42;94328.25;5012404;28;20033;-75
2022/06/15 09:48:29;;;;;;;3.72;1.40;;;;;;;19.90;36.10;94290.97;5005110;28;20394;-77
2022/06/15 09:51:03;;;;;;;4.57;1.38;;;;;;;20.08;36.83;94334.47;5008153;28;20433;-76
2022/06/15 09:53:35;;;;;;;3.67;1.42;;;;;;;20.21;35.92;94327.78;5009064;28;20034;-75
2022/06/15 09:56:06;;;;;;;2.63;1.50;;;;;;;20.24;36.50;94321.66;5005397;28;20101;-76
2022/06/15 09:58:40;;;;;;;7.10;1.75;;;;;;;20.20;36.30;94320.81;5006679;28;20124;-75
2022/06/15 10:01:08;;;;;;;1.58;1.27;;;;;;;19.92;36.43;94304.91;5004878;28;20053;-76
2022/06/15 10:03:40;;;;;;;1.48;1.30;;;;;;;20.03;36.38;94316.66;5007373;28;20512;-75
2022/06/15 10:06:17;;;;;;;9.05;2.67;;;;;;;19.89;37.43;94321.03;5009199;28;20143;-75
2022/06/15 10:08:43;;;;;;;1.98;1.30;;;;;;;19.95;36.53;94298.78;5003701;28;20041;-76
2022/06/15 10:11:15;;;;;;;1.50;1.25;;;;;;;19.99;36.78;94323.16;5007180;28;20078;-75
2022/06/15 10:13:41;;;;;;;2.03;1.15;;;;;;;19.77;37.67;94291.53;5007668;28;20144;-75
2022/06/15 10:16:25;;;;;;;2.95;1.40;;;;;;;19.92;37.64;94314.91;5009901;28;20076;-77
2022/06/15 10:18:57;;;;;;;6.88;1.92;;;;;;;20.01;37.08;94308.13;5009914;28;20542;-75
2022/06/15 10:21:30;;;;;;;7.35;1.48;;;;;;;19.99;37.37;94296.16;5007483;28;20463;-76
2022/06/15 10:24:13;;;;;;;2.00;1.40;;;;;;;20.13;38.51;94315.28;5002716;28;20121;-75
2022/06/15 10:26:49;;;;;;;6.53;1.95;;;;;;;20.24;37.20;94300.03;4989125;28;20073;-75
2022/06/15 10:29:15;;;;;;;2.35;1.70;;;;;;;20.20;38.76;94320.81;4996868;28;20056;-76
2022/06/15 10:32:00;;;;;;;2.22;1.77;;;;;;;19.95;38.40;94306.09;4988270;28;20607;-76
2022/06/15 10:34:34;;;;;;;3.23;1.63;;;;;;;20.01;38.81;94313.53;4987858;28;20856;-76
2022/06/15 10:37:06;;;;;;;1.88;1.55;;;;;;;20.05;37.88;94308.19;4988847;28;20496;-75
2022/06/15 10:39:36;;;;;;;3.53;1.33;;;;;;;20.30;38.69;94312.09;5006851;28;20056;-75
2022/06/15 10:42:06;;;;;;;4.05;1.50;;;;;;;20.59;37.75;94308.69;5009598;28;20562;-74
2022/06/15 10:44:40;;;;;;;1.77;1.67;;;;;;;20.55;37.19;94305.16;5008053;28;20116;-74
2022/06/15 10:47:40;;;;;;;2.15;1.70;;;;;;;20.81;36.35;94306.28;5004841;28;20046;-74
2022/06/15 10:50:16;;;;;;;4.15;1.80;;;;;;;20.98;36.06;94303.06;5001549;28;20025;-75
2022/06/15 10:52:52;;;;;;;1.60;1.33;;;;;;;21.13;34.78;94304.81;5004748;28;20041;-75
2022/06/15 11:04:30;;;;;;;1.70;1.42;;;;;;;21.40;35.07;94281.94;5009526;28;20509;-75
2022/06/15 11:07:12;;;;;;;1.50;1.40;;;;;;;21.44;36.27;94288.16;5007929;28;20029;-75
2022/06/15 11:10:02;;;;;;;2.35;1.42;;;;;;;21.61;35.55;94292.22;5014087;28;20073;-74
2022/06/15 11:12:51;;;;;;;1.90;1.75;;;;;;;21.68;34.98;94288.81;5011452;28;20037;-75
2022/06/15 11:15:16;;;;;;;1.48;1.38;;;;;;;21.33;32.95;94289.97;5011927;28;20025;-75
2022/06/15 11:18:05;;;;;;;5.10;1.73;;;;;;;21.32;34.62;94288.41;5010995;28;20314;-74
2022/06/15 11:20:44;;;;;;;2.15;1.77;;;;;;;21.73;35.65;94291.19;5017966;28;20044;-75
2022/06/15 11:23:22;;;;;;;2.40;1.38;;;;;;;21.77;33.89;94283.88;5009272;28;20482;-74
2022/06/15 11:25:59;;;;;;;2.83;1.35;;;;;;;21.69;34.58;94260.59;5015595;28;20053;-75
2022/06/15 11:28:37;;;;;;;2.08;1.35;;;;;;;21.88;35.67;94263.09;5011307;28;20556;-74
2022/06/15 11:31:14;;;;;;;1.80;1.38;;;;;;;22.20;34.16;94274.97;5016357;28;20049;-75
2022/06/15 11:33:45;;;;;;;2.60;1.25;;;;;;;22.19;34.75;94276.13;5012097;28;20045;-75
2022/06/15 11:36:25;;;;;;;2.58;1.45;;;;;;;22.32;36.09;94273.94;5006427;28;20041;-75
2022/06/15 11:38:57;;;;;;;2.58;1.40;;;;;;;21.91;33.59;94270.47;4990232;28;20073;-74
2022/06/15 11:41:34;;;;;;;2.13;1.45;;;;;;;21.95;34.19;94255.03;4986808;28;20038;-74
2022/06/15 11:44:01;;;;;;;1.60;1.35;;;;;;;21.98;34.10;94242.69;4989252;28;20103;-75
2022/06/15 11:46:35;;;;;;;2.38;1.42;;;;;;;22.21;34.38;94263.00;4989531;28;20065;-75
2022/06/15 11:49:23;;;;;;;1.50;1.35;;;;;;;22.37;32.63;94275.50;4991431;28;20080;-75
2022/06/15 11:52:22;;;;;;;4.93;1.42;;;;;;;22.33;32.65;94280.91;5010934;28;20058;-75
2022/06/15 11:55:09;;;;;;;1.42;1.27;;;;;;;22.52;34.07;94277.94;5009111;28;20058;-75
2022/06/15 11:58:05;;;;;;;1.75;1.35;;;;;;;22.66;34.64;94269.91;5002987;28;20062;-75
2022/06/15 12:00:54;;;;;;;1.83;1.60;;;;;;;22.83;33.24;94265.72;5006356;28;20656;-74
2022/06/15 12:03:42;;;;;;;3.15;1.52;;;;;;;22.89;34.04;94258.03;5001971;28;20037;-75
2022/06/15 12:06:27;;;;;;;2.10;1.45;;;;;;;22.64;34.07;94244.31;4999699;28;20053;-75